sensor_id;sensor_type;location;lat;lon;timestamp;temperature;humidity
27803;DHT22;15182;48.174;11.562;2024-03-23T00:54:11;17.50;73.80
27803;DHT22;15182;48.174;11.562;2024-03-23T00:56:38;17.50;73.60
27803;DHT22;15182;48.174;11.562;2024-03-23T00:59:05;17.50;73.50
27803;DHT22;15182;48.174;11.562;2024-03-23T01:01:33;17.40;73.50
27803;DHT22;15182;48.174;11.562;2024-03-23T01:04:00;17.40;74.30
27803;DHT22;15182;48.174;11.562;2024-03-23T01:06:28;17.40;73.30
27803;DHT22;15182;48.174;11.562;2024-03-23T01:08:55;17.40;73.20
27803;DHT22;15182;48.174;11.562;2024-03-23T01:11:24;17.40;73.00
27803;DHT22;15182;48.174;11.562;2024-03-23T01:13:51;17.40;73.00
27803;DHT22;15182;48.174;11.562;2024-03-23T01:16:21;17.40;73.00
27803;DHT22;15182;48.174;11.562;2024-03-23T01:18:48;17.40;73.10
27803;DHT22;15182;48.174;11.562;2024-03-23T01:21:15;17.30;72.90
27803;DHT22;15182;48.174;11.562;2024-03-23T01:23:43;17.30;72.90
27803;DHT22;15182;48.174;11.562;2024-03-23T01:26:11;17.30;72.90
27803;DHT22;15182;48.174;11.562;2024-03-23T01:28:39;17.30;72.90
27803;DHT22;15182;48.174;11.562;2024-03-23T01:31:07;17.30;73.00
27803;DHT22;15182;48.174;11.562;2024-03-23T01:33:34;17.30;73.00
27803;DHT22;15182;48.174;11.562;2024-03-23T01:36:02;17.30;72.90
27803;DHT22;15182;48.174;11.562;2024-03-23T01:38:29;17.30;73.00
27803;DHT22;15182;48.174;11.562;2024-03-23T01:40:58;17.30;73.00
27803;DHT22;15182;48.174;11.562;2024-03-23T01:43:24;17.30;73.00
27803;DHT22;15182;48.174;11.562;2024-03-23T01:45:54;17.20;73.00
27803;DHT22;15182;48.174;11.562;2024-03-23T01:48:21;17.30;73.90
27803;DHT22;15182;48.174;11.562;2024-03-23T01:50:49;17.30;73.00
27803;DHT22;15182;48.174;11.562;2024-03-23T01:53:16;17.30;73.00
27803;DHT22;15182;48.174;11.562;2024-03-23T01:55:47;17.30;73.00
27803;DHT22;15182;48.174;11.562;2024-03-23T01:58:14;17.30;73.10
27803;DHT22;15182;48.174;11.562;2024-03-23T02:00:42;17.30;73.10
27803;DHT22;15182;48.174;11.562;2024-03-23T02:03:23;17.30;74.00
27803;DHT22;15182;48.174;11.562;2024-03-23T02:05:53;17.30;73.30
27803;DHT22;15182;48.174;11.562;2024-03-23T02:08:21;17.30;73.40
27803;DHT22;15182;48.174;11.562;2024-03-23T02:10:51;17.30;73.40
27803;DHT22;15182;48.174;11.562;2024-03-23T02:13:18;17.30;73.30
27803;DHT22;15182;48.174;11.562;2024-03-23T02:15:46;17.30;73.40
27803;DHT22;15182;48.174;11.562;2024-03-23T02:18:14;17.30;73.40
27803;DHT22;15182;48.174;11.562;2024-03-23T02:20:43;17.30;73.40
27803;DHT22;15182;48.174;11.562;2024-03-23T02:23:14;17.30;73.60
27803;DHT22;15182;48.174;11.562;2024-03-23T02:25:42;17.20;73.70
27803;DHT22;15182;48.174;11.562;2024-03-23T02:28:09;17.20;73.70
27803;DHT22;15182;48.174;11.562;2024-03-23T02:30:38;17.20;73.90
27803;DHT22;15182;48.174;11.562;2024-03-23T02:33:05;17.20;74.80
27803;DHT22;15182;48.174;11.562;2024-03-23T02:35:33;17.20;73.90
27803;DHT22;15182;48.174;11.562;2024-03-23T02:38:00;17.20;74.00
27803;DHT22;15182;48.174;11.562;2024-03-23T02:40:29;17.20;74.00
27803;DHT22;15182;48.174;11.562;2024-03-23T02:42:57;17.20;74.00
27803;DHT22;15182;48.174;11.562;2024-03-23T02:45:24;17.10;74.90
27803;DHT22;15182;48.174;11.562;2024-03-23T02:47:51;17.10;74.00
27803;DHT22;15182;48.174;11.562;2024-03-23T02:50:19;17.10;74.10
27803;DHT22;15182;48.174;11.562;2024-03-23T02:52:46;17.10;74.20
27803;DHT22;15182;48.174;11.562;2024-03-23T02:55:14;17.10;74.30
27803;DHT22;15182;48.174;11.562;2024-03-23T02:57:43;17.10;74.40
27803;DHT22;15182;48.174;11.562;2024-03-23T03:00:11;17.10;74.40
27803;DHT22;15182;48.174;11.562;2024-03-23T03:02:39;17.10;74.50
27803;DHT22;15182;48.174;11.562;2024-03-23T03:05:06;17.00;74.40
27803;DHT22;15182;48.174;11.562;2024-03-23T03:07:35;17.00;74.50
27803;DHT22;15182;48.174;11.562;2024-03-23T03:10:04;17.00;74.50
27803;DHT22;15182;48.174;11.562;2024-03-23T03:12:34;17.00;74.60
27803;DHT22;15182;48.174;11.562;2024-03-23T03:15:03;17.00;74.60
27803;DHT22;15182;48.174;11.562;2024-03-23T03:17:32;17.00;74.90
27803;DHT22;15182;48.174;11.562;2024-03-23T03:19:59;17.00;74.80
27803;DHT22;15182;48.174;11.562;2024-03-23T03:22:27;16.90;74.80
27803;DHT22;15182;48.174;11.562;2024-03-23T03:24:53;16.90;74.80
27803;DHT22;15182;48.174;11.562;2024-03-23T03:27:21;16.90;74.90
27803;DHT22;15182;48.174;11.562;2024-03-23T03:29:49;16.90;75.00
27803;DHT22;15182;48.174;11.562;2024-03-23T03:32:18;16.90;74.90
27803;DHT22;15182;48.174;11.562;2024-03-23T03:34:45;16.90;75.00
27803;DHT22;15182;48.174;11.562;2024-03-23T03:37:13;16.90;76.00
27803;DHT22;15182;48.174;11.562;2024-03-23T03:39:39;16.90;75.30
27803;DHT22;15182;48.174;11.562;2024-03-23T03:42:07;16.90;75.30
27803;DHT22;15182;48.174;11.562;2024-03-23T03:44:34;16.90;75.30
27803;DHT22;15182;48.174;11.562;2024-03-23T03:47:03;16.90;75.40
27803;DHT22;15182;48.174;11.562;2024-03-23T03:49:33;16.90;75.40
27803;DHT22;15182;48.174;11.562;2024-03-23T03:52:00;16.80;75.30
27803;DHT22;15182;48.174;11.562;2024-03-23T03:54:28;16.80;75.40
27803;DHT22;15182;48.174;11.562;2024-03-23T03:56:56;16.80;75.40
27803;DHT22;15182;48.174;11.562;2024-03-23T03:59:23;16.80;75.40
27803;DHT22;15182;48.174;11.562;2024-03-23T04:01:51;16.80;75.40
27803;DHT22;15182;48.174;11.562;2024-03-23T04:04:17;16.80;75.60
27803;DHT22;15182;48.174;11.562;2024-03-23T04:06:48;16.80;75.60
27803;DHT22;15182;48.174;11.562;2024-03-23T04:09:15;16.80;75.60
27803;DHT22;15182;48.174;11.562;2024-03-23T04:11:43;16.70;75.50
27803;DHT22;15182;48.174;11.562;2024-03-23T04:14:10;16.70;75.60
27803;DHT22;15182;48.174;11.562;2024-03-23T04:16:38;16.70;75.60
27803;DHT22;15182;48.174;11.562;2024-03-23T04:19:05;16.70;75.60
27803;DHT22;15182;48.174;11.562;2024-03-23T04:21:33;16.70;75.70
27803;DHT22;15182;48.174;11.562;2024-03-23T04:24:02;16.70;75.60
27803;DHT22;15182;48.174;11.562;2024-03-23T04:26:30;16.70;75.70
27803;DHT22;15182;48.174;11.562;2024-03-23T04:28:57;16.70;75.60
27803;DHT22;15182;48.174;11.562;2024-03-23T04:31:24;16.70;75.60
27803;DHT22;15182;48.174;11.562;2024-03-23T04:33:51;16.70;75.60
27803;DHT22;15182;48.174;11.562;2024-03-23T04:36:19;16.70;75.60
27803;DHT22;15182;48.174;11.562;2024-03-23T04:38:46;16.70;75.60
27803;DHT22;15182;48.174;11.562;2024-03-23T04:41:17;16.70;75.60
27803;DHT22;15182;48.174;11.562;2024-03-23T04:43:45;16.70;75.60
27803;DHT22;15182;48.174;11.562;2024-03-23T04:46:13;16.70;75.60
27803;DHT22;15182;48.174;11.562;2024-03-23T04:48:41;16.80;75.60
27803;DHT22;15182;48.174;11.562;2024-03-23T04:51:10;16.70;75.60
27803;DHT22;15182;48.174;11.562;2024-03-23T04:53:38;16.70;75.60
27803;DHT22;15182;48.174;11.562;2024-03-23T04:56:06;16.70;75.50
27803;DHT22;15182;48.174;11.562;2024-03-23T04:58:34;16.70;75.50
27803;DHT22;15182;48.174;11.562;2024-03-23T05:01:02;16.70;75.50
27803;DHT22;15182;48.174;11.562;2024-03-23T05:03:29;16.70;75.50
27803;DHT22;15182;48.174;11.562;2024-03-23T05:05:57;16.70;75.30
27803;DHT22;15182;48.174;11.562;2024-03-23T05:08:24;16.70;75.40
27803;DHT22;15182;48.174;11.562;2024-03-23T05:10:52;16.70;75.30
27803;DHT22;15182;48.174;11.562;2024-03-23T05:13:19;16.70;75.30
27803;DHT22;15182;48.174;11.562;2024-03-23T05:15:52;16.70;75.20
27803;DHT22;15182;48.174;11.562;2024-03-23T05:18:20;16.70;75.20
27803;DHT22;15182;48.174;11.562;2024-03-23T05:20:48;16.70;75.10
27803;DHT22;15182;48.174;11.562;2024-03-23T05:23:14;16.70;74.90
27803;DHT22;15182;48.174;11.562;2024-03-23T05:25:42;16.80;75.00
27803;DHT22;15182;48.174;11.562;2024-03-23T05:28:09;16.80;74.90
27803;DHT22;15182;48.174;11.562;2024-03-23T05:30:38;16.80;74.90
27803;DHT22;15182;48.174;11.562;2024-03-23T05:33:06;16.80;74.90
27803;DHT22;15182;48.174;11.562;2024-03-23T05:35:34;16.80;74.90
27803;DHT22;15182;48.174;11.562;2024-03-23T05:38:01;16.80;74.90
27803;DHT22;15182;48.174;11.562;2024-03-23T05:40:29;16.80;74.90
27803;DHT22;15182;48.174;11.562;2024-03-23T05:42:55;16.90;75.70
27803;DHT22;15182;48.174;11.562;2024-03-23T05:45:23;16.90;74.80
27803;DHT22;15182;48.174;11.562;2024-03-23T05:47:50;16.80;74.60
27803;DHT22;15182;48.174;11.562;2024-03-23T05:50:19;16.90;74.60
27803;DHT22;15182;48.174;11.562;2024-03-23T05:52:46;16.90;74.60
27803;DHT22;15182;48.174;11.562;2024-03-23T05:55:14;16.90;74.70
27803;DHT22;15182;48.174;11.562;2024-03-23T05:57:41;16.90;74.70
27803;DHT22;15182;48.174;11.562;2024-03-23T06:00:10;16.90;74.60
27803;DHT22;15182;48.174;11.562;2024-03-23T06:02:42;16.90;74.80
27803;DHT22;15182;48.174;11.562;2024-03-23T06:05:11;16.90;74.70
27803;DHT22;15182;48.174;11.562;2024-03-23T06:07:40;16.90;74.60
27803;DHT22;15182;48.174;11.562;2024-03-23T06:10:08;17.00;74.70
27803;DHT22;15182;48.174;11.562;2024-03-23T06:12:35;17.00;74.80
27803;DHT22;15182;48.174;11.562;2024-03-23T06:15:04;17.00;74.90
27803;DHT22;15182;48.174;11.562;2024-03-23T06:17:33;16.90;74.80
27803;DHT22;15182;48.174;11.562;2024-03-23T06:20:01;17.00;74.80
27803;DHT22;15182;48.174;11.562;2024-03-23T06:22:27;16.90;74.80
27803;DHT22;15182;48.174;11.562;2024-03-23T06:24:57;16.90;75.00
27803;DHT22;15182;48.174;11.562;2024-03-23T06:27:24;16.90;75.00
27803;DHT22;15182;48.174;11.562;2024-03-23T06:29:51;16.90;75.10
27803;DHT22;15182;48.174;11.562;2024-03-23T06:32:18;16.90;75.00
27803;DHT22;15182;48.174;11.562;2024-03-23T06:34:46;17.00;74.90
27803;DHT22;15182;48.174;11.562;2024-03-23T06:37:13;17.00;74.90
27803;DHT22;15182;48.174;11.562;2024-03-23T06:39:41;17.00;74.80
27803;DHT22;15182;48.174;11.562;2024-03-23T06:42:09;17.00;74.70
27803;DHT22;15182;48.174;11.562;2024-03-23T06:44:37;17.10;74.80
27803;DHT22;15182;48.174;11.562;2024-03-23T06:47:04;17.10;74.70
27803;DHT22;15182;48.174;11.562;2024-03-23T06:49:32;17.10;74.70
27803;DHT22;15182;48.174;11.562;2024-03-23T06:51:59;17.10;74.60
27803;DHT22;15182;48.174;11.562;2024-03-23T06:54:27;17.20;74.60
27803;DHT22;15182;48.174;11.562;2024-03-23T06:56:53;17.20;74.60
27803;DHT22;15182;48.174;11.562;2024-03-23T06:59:22;17.20;74.70
27803;DHT22;15182;48.174;11.562;2024-03-23T07:01:49;17.20;74.80
27803;DHT22;15182;48.174;11.562;2024-03-23T07:04:17;17.30;75.80
27803;DHT22;15182;48.174;11.562;2024-03-23T07:06:45;17.30;75.10
27803;DHT22;15182;48.174;11.562;2024-03-23T07:17:22;17.50;75.70
27803;DHT22;15182;48.174;11.562;2024-03-23T07:19:50;17.60;75.70
27803;DHT22;15182;48.174;11.562;2024-03-23T07:22:17;17.60;75.60
27803;DHT22;15182;48.174;11.562;2024-03-23T07:24:44;17.60;75.60
27803;DHT22;15182;48.174;11.562;2024-03-23T07:27:12;17.70;75.60
27803;DHT22;15182;48.174;11.562;2024-03-23T07:29:39;17.80;75.60
27803;DHT22;15182;48.174;11.562;2024-03-23T07:32:07;17.80;75.60
27803;DHT22;15182;48.174;11.562;2024-03-23T07:34:35;17.80;75.50
27803;DHT22;15182;48.174;11.562;2024-03-23T07:40:12;17.90;75.70
27803;DHT22;15182;48.174;11.562;2024-03-23T07:42:39;17.90;75.60
27803;DHT22;15182;48.174;11.562;2024-03-23T07:45:07;17.90;76.50
27803;DHT22;15182;48.174;11.562;2024-03-23T07:47:35;17.90;78.30
27803;DHT22;15182;48.174;11.562;2024-03-23T07:50:05;17.80;78.70
27803;DHT22;15182;48.174;11.562;2024-03-23T07:52:33;17.80;79.70
27803;DHT22;15182;48.174;11.562;2024-03-23T07:55:00;17.60;79.70
27803;DHT22;15182;48.174;11.562;2024-03-23T07:57:28;17.50;80.30
27803;DHT22;15182;48.174;11.562;2024-03-23T07:59:56;17.40;80.80
27803;DHT22;15182;48.174;11.562;2024-03-23T08:02:22;17.20;81.20
27803;DHT22;15182;48.174;11.562;2024-03-23T08:04:50;17.10;82.00
27803;DHT22;15182;48.174;11.562;2024-03-23T08:07:18;17.00;82.50
27803;DHT22;15182;48.174;11.562;2024-03-23T08:09:46;16.80;83.40
27803;DHT22;15182;48.174;11.562;2024-03-23T08:12:13;16.70;83.60
27803;DHT22;15182;48.174;11.562;2024-03-23T08:14:40;16.50;84.20
27803;DHT22;15182;48.174;11.562;2024-03-23T08:17:07;16.40;84.80
27803;DHT22;15182;48.174;11.562;2024-03-23T08:19:35;16.30;85.20
27803;DHT22;15182;48.174;11.562;2024-03-23T08:22:03;16.20;85.70
27803;DHT22;15182;48.174;11.562;2024-03-23T08:24:32;16.10;86.50
27803;DHT22;15182;48.174;11.562;2024-03-23T08:26:58;16.10;87.00
27803;DHT22;15182;48.174;11.562;2024-03-23T08:29:26;15.90;87.20
27803;DHT22;15182;48.174;11.562;2024-03-23T08:31:53;15.90;87.30
27803;DHT22;15182;48.174;11.562;2024-03-23T08:34:21;15.80;87.00
27803;DHT22;15182;48.174;11.562;2024-03-23T08:36:48;15.70;87.20
27803;DHT22;15182;48.174;11.562;2024-03-23T08:39:16;15.60;87.40
27803;DHT22;15182;48.174;11.562;2024-03-23T08:41:44;15.60;87.50
27803;DHT22;15182;48.174;11.562;2024-03-23T08:44:12;15.50;87.60
27803;DHT22;15182;48.174;11.562;2024-03-23T08:46:39;15.50;87.60
27803;DHT22;15182;48.174;11.562;2024-03-23T08:49:06;15.40;88.00
27803;DHT22;15182;48.174;11.562;2024-03-23T08:51:33;15.30;88.00
27803;DHT22;15182;48.174;11.562;2024-03-23T08:54:01;15.30;88.00
27803;DHT22;15182;48.174;11.562;2024-03-23T08:56:28;15.30;88.30
27803;DHT22;15182;48.174;11.562;2024-03-23T08:58:57;15.20;88.20
27803;DHT22;15182;48.174;11.562;2024-03-23T09:01:24;15.20;88.40
27803;DHT22;15182;48.174;11.562;2024-03-23T09:03:51;15.10;88.50
27803;DHT22;15182;48.174;11.562;2024-03-23T09:06:18;15.00;88.60
27803;DHT22;15182;48.174;11.562;2024-03-23T09:08:46;15.00;88.80
27803;DHT22;15182;48.174;11.562;2024-03-23T09:11:13;15.00;89.20
27803;DHT22;15182;48.174;11.562;2024-03-23T09:13:41;15.00;89.60
27803;DHT22;15182;48.174;11.562;2024-03-23T09:16:09;14.90;89.70
27803;DHT22;15182;48.174;11.562;2024-03-23T09:18:37;14.90;90.00
27803;DHT22;15182;48.174;11.562;2024-03-23T09:21:11;14.80;89.90
27803;DHT22;15182;48.174;11.562;2024-03-23T09:23:39;14.80;90.50
27803;DHT22;15182;48.174;11.562;2024-03-23T09:26:06;14.80;90.30
27803;DHT22;15182;48.174;11.562;2024-03-23T09:28:34;14.80;90.50
27803;DHT22;15182;48.174;11.562;2024-03-23T09:31:04;14.80;90.40
27803;DHT22;15182;48.174;11.562;2024-03-23T09:33:34;14.70;90.90
27803;DHT22;15182;48.174;11.562;2024-03-23T09:36:04;14.70;90.60
27803;DHT22;15182;48.174;11.562;2024-03-23T09:38:33;14.70;90.80
27803;DHT22;15182;48.174;11.562;2024-03-23T09:41:00;14.70;90.70
27803;DHT22;15182;48.174;11.562;2024-03-23T09:43:28;14.60;90.60
27803;DHT22;15182;48.174;11.562;2024-03-23T09:45:54;14.60;90.50
27803;DHT22;15182;48.174;11.562;2024-03-23T09:48:22;14.60;90.30
27803;DHT22;15182;48.174;11.562;2024-03-23T09:50:50;14.50;90.70
27803;DHT22;15182;48.174;11.562;2024-03-23T09:53:18;14.50;90.30
27803;DHT22;15182;48.174;11.562;2024-03-23T09:55:45;14.50;90.20
27803;DHT22;15182;48.174;11.562;2024-03-23T09:58:14;14.40;90.10
27803;DHT22;15182;48.174;11.562;2024-03-23T10:00:41;14.40;90.10
27803;DHT22;15182;48.174;11.562;2024-03-23T10:03:09;14.30;90.10
27803;DHT22;15182;48.174;11.562;2024-03-23T10:05:37;14.30;90.20
27803;DHT22;15182;48.174;11.562;2024-03-23T10:08:18;14.30;90.30
27803;DHT22;15182;48.174;11.562;2024-03-23T10:10:46;14.20;90.80
27803;DHT22;15182;48.174;11.562;2024-03-23T10:13:24;14.20;90.60
27803;DHT22;15182;48.174;11.562;2024-03-23T10:15:58;14.20;91.10
27803;DHT22;15182;48.174;11.562;2024-03-23T10:18:27;14.10;90.90
27803;DHT22;15182;48.174;11.562;2024-03-23T10:21:07;14.10;90.40
27803;DHT22;15182;48.174;11.562;2024-03-23T10:23:41;14.10;90.30
27803;DHT22;15182;48.174;11.562;2024-03-23T10:26:19;14.10;90.20
27803;DHT22;15182;48.174;11.562;2024-03-23T10:28:55;14.00;90.10
27803;DHT22;15182;48.174;11.562;2024-03-23T10:31:24;13.90;90.30
27803;DHT22;15182;48.174;11.562;2024-03-23T10:33:52;13.90;90.20
27803;DHT22;15182;48.174;11.562;2024-03-23T10:36:21;13.80;90.40
27803;DHT22;15182;48.174;11.562;2024-03-23T10:38:51;13.80;90.50
27803;DHT22;15182;48.174;11.562;2024-03-23T10:41:19;13.80;90.80
27803;DHT22;15182;48.174;11.562;2024-03-23T10:43:47;13.80;90.90
27803;DHT22;15182;48.174;11.562;2024-03-23T10:46:15;13.80;90.90
27803;DHT22;15182;48.174;11.562;2024-03-23T10:48:43;13.80;91.00
27803;DHT22;15182;48.174;11.562;2024-03-23T10:51:11;13.80;91.10
27803;DHT22;15182;48.174;11.562;2024-03-23T10:53:39;13.80;91.00
27803;DHT22;15182;48.174;11.562;2024-03-23T10:56:09;13.80;90.80
27803;DHT22;15182;48.174;11.562;2024-03-23T10:58:39;13.80;90.80
27803;DHT22;15182;48.174;11.562;2024-03-23T11:01:07;13.80;90.70
27803;DHT22;15182;48.174;11.562;2024-03-23T11:03:39;13.80;90.50
27803;DHT22;15182;48.174;11.562;2024-03-23T11:06:08;13.80;90.40
27803;DHT22;15182;48.174;11.562;2024-03-23T11:08:37;13.70;90.30
27803;DHT22;15182;48.174;11.562;2024-03-23T11:11:19;13.70;90.30
27803;DHT22;15182;48.174;11.562;2024-03-23T11:13:48;13.70;90.50
27803;DHT22;15182;48.174;11.562;2024-03-23T11:16:17;13.60;90.20
27803;DHT22;15182;48.174;11.562;2024-03-23T11:18:50;13.60;90.40
27803;DHT22;15182;48.174;11.562;2024-03-23T11:21:51;13.60;90.40
27803;DHT22;15182;48.174;11.562;2024-03-23T11:24:20;13.60;90.60
27803;DHT22;15182;48.174;11.562;2024-03-23T11:26:49;13.60;90.40
27803;DHT22;15182;48.174;11.562;2024-03-23T11:29:17;13.60;90.40
27803;DHT22;15182;48.174;11.562;2024-03-23T11:31:47;13.60;90.40
27803;DHT22;15182;48.174;11.562;2024-03-23T11:34:15;13.60;90.50
27803;DHT22;15182;48.174;11.562;2024-03-23T11:36:42;13.60;90.40
27803;DHT22;15182;48.174;11.562;2024-03-23T11:39:14;13.60;90.30
27803;DHT22;15182;48.174;11.562;2024-03-23T11:41:50;13.60;90.50
27803;DHT22;15182;48.174;11.562;2024-03-23T11:44:20;13.60;90.40
27803;DHT22;15182;48.174;11.562;2024-03-23T11:46:49;13.60;90.60
27803;DHT22;15182;48.174;11.562;2024-03-23T11:49:25;13.70;89.80
27803;DHT22;15182;48.174;11.562;2024-03-23T11:51:54;13.60;89.20
27803;DHT22;15182;48.174;11.562;2024-03-23T11:54:23;13.60;89.00
27803;DHT22;15182;48.174;11.562;2024-03-23T11:56:56;13.60;89.10
27803;DHT22;15182;48.174;11.562;2024-03-23T11:59:33;13.60;88.60
27803;DHT22;15182;48.174;11.562;2024-03-23T12:02:05;13.60;88.60
27803;DHT22;15182;48.174;11.562;2024-03-23T12:04:33;13.60;88.20
27803;DHT22;15182;48.174;11.562;2024-03-23T12:07:10;13.60;88.20
27803;DHT22;15182;48.174;11.562;2024-03-23T12:09:39;13.60;88.80
27803;DHT22;15182;48.174;11.562;2024-03-23T12:12:14;13.60;87.80
27803;DHT22;15182;48.174;11.562;2024-03-23T12:14:43;13.60;88.10
27803;DHT22;15182;48.174;11.562;2024-03-23T12:17:11;13.60;87.80
27803;DHT22;15182;48.174;11.562;2024-03-23T12:19:40;13.60;87.20
27803;DHT22;15182;48.174;11.562;2024-03-23T12:22:08;13.60;86.90
27803;DHT22;15182;48.174;11.562;2024-03-23T12:24:36;13.70;86.80
27803;DHT22;15182;48.174;11.562;2024-03-23T12:27:04;13.70;86.60
27803;DHT22;15182;48.174;11.562;2024-03-23T12:29:34;13.70;86.50
27803;DHT22;15182;48.174;11.562;2024-03-23T12:32:02;13.80;86.10
27803;DHT22;15182;48.174;11.562;2024-03-23T12:34:30;13.80;85.80
27803;DHT22;15182;48.174;11.562;2024-03-23T12:36:57;13.80;85.30
27803;DHT22;15182;48.174;11.562;2024-03-23T12:39:25;13.80;84.90
27803;DHT22;15182;48.174;11.562;2024-03-23T12:41:51;13.80;84.40
27803;DHT22;15182;48.174;11.562;2024-03-23T12:44:19;13.90;84.10
27803;DHT22;15182;48.174;11.562;2024-03-23T12:46:48;13.90;84.50
27803;DHT22;15182;48.174;11.562;2024-03-23T12:49:16;13.90;82.90
27803;DHT22;15182;48.174;11.562;2024-03-23T12:51:49;13.90;82.90
27803;DHT22;15182;48.174;11.562;2024-03-23T12:54:22;13.80;82.50
27803;DHT22;15182;48.174;11.562;2024-03-23T12:56:49;13.80;82.70
27803;DHT22;15182;48.174;11.562;2024-03-23T12:59:17;13.90;83.90
27803;DHT22;15182;48.174;11.562;2024-03-23T13:01:44;13.90;83.10
27803;DHT22;15182;48.174;11.562;2024-03-23T13:04:13;13.90;82.90
27803;DHT22;15182;48.174;11.562;2024-03-23T13:06:40;13.90;82.60
27803;DHT22;15182;48.174;11.562;2024-03-23T13:09:08;13.90;82.80
27803;DHT22;15182;48.174;11.562;2024-03-23T13:11:35;13.90;82.80
27803;DHT22;15182;48.174;11.562;2024-03-23T13:14:03;13.90;82.80
27803;DHT22;15182;48.174;11.562;2024-03-23T13:16:30;13.90;82.90
27803;DHT22;15182;48.174;11.562;2024-03-23T13:18:58;13.90;83.20
27803;DHT22;15182;48.174;11.562;2024-03-23T13:21:26;14.00;82.90
27803;DHT22;15182;48.174;11.562;2024-03-23T13:23:54;14.00;82.30
27803;DHT22;15182;48.174;11.562;2024-03-23T13:26:21;14.00;82.30
27803;DHT22;15182;48.174;11.562;2024-03-23T13:28:49;14.00;81.90
27803;DHT22;15182;48.174;11.562;2024-03-23T13:31:16;14.00;82.40
27803;DHT22;15182;48.174;11.562;2024-03-23T13:33:44;14.00;81.70
27803;DHT22;15182;48.174;11.562;2024-03-23T13:36:11;14.00;81.30
27803;DHT22;15182;48.174;11.562;2024-03-23T13:38:40;14.00;80.90
27803;DHT22;15182;48.174;11.562;2024-03-23T13:41:07;14.00;80.40
27803;DHT22;15182;48.174;11.562;2024-03-23T13:43:38;14.00;80.20
27803;DHT22;15182;48.174;11.562;2024-03-23T13:46:06;14.00;80.40
27803;DHT22;15182;48.174;11.562;2024-03-23T13:48:34;13.90;80.80
27803;DHT22;15182;48.174;11.562;2024-03-23T13:51:02;13.90;80.80
27803;DHT22;15182;48.174;11.562;2024-03-23T13:53:31;13.90;80.80
27803;DHT22;15182;48.174;11.562;2024-03-23T13:56:00;13.80;81.20
27803;DHT22;15182;48.174;11.562;2024-03-23T13:58:29;13.70;81.70
27803;DHT22;15182;48.174;11.562;2024-03-23T14:00:57;13.60;82.20
27803;DHT22;15182;48.174;11.562;2024-03-23T14:03:25;13.50;82.80
27803;DHT22;15182;48.174;11.562;2024-03-23T14:05:51;13.40;83.40
27803;DHT22;15182;48.174;11.562;2024-03-23T14:08:20;13.30;83.90
27803;DHT22;15182;48.174;11.562;2024-03-23T14:10:48;13.10;84.30
27803;DHT22;15182;48.174;11.562;2024-03-23T14:13:17;13.00;85.00
27803;DHT22;15182;48.174;11.562;2024-03-23T14:15:44;13.00;85.70
27803;DHT22;15182;48.174;11.562;2024-03-23T14:18:12;12.90;86.00
27803;DHT22;15182;48.174;11.562;2024-03-23T14:20:40;12.90;87.20
27803;DHT22;15182;48.174;11.562;2024-03-23T14:23:07;12.80;86.30
27803;DHT22;15182;48.174;11.562;2024-03-23T14:25:34;12.80;86.40
27803;DHT22;15182;48.174;11.562;2024-03-23T14:28:02;12.80;86.70
27803;DHT22;15182;48.174;11.562;2024-03-23T14:30:30;12.80;86.50
27803;DHT22;15182;48.174;11.562;2024-03-23T14:32:59;12.80;86.60
27803;DHT22;15182;48.174;11.562;2024-03-23T14:35:25;12.80;86.10
27803;DHT22;15182;48.174;11.562;2024-03-23T14:37:53;12.80;85.40
27803;DHT22;15182;48.174;11.562;2024-03-23T14:40:20;12.80;85.10
27803;DHT22;15182;48.174;11.562;2024-03-23T14:42:48;12.80;84.50
27803;DHT22;15182;48.174;11.562;2024-03-23T14:45:14;12.80;84.00
27803;DHT22;15182;48.174;11.562;2024-03-23T14:47:43;12.80;83.50
27803;DHT22;15182;48.174;11.562;2024-03-23T14:50:11;12.70;83.80
27803;DHT22;15182;48.174;11.562;2024-03-23T14:52:42;12.70;83.00
27803;DHT22;15182;48.174;11.562;2024-03-23T14:55:10;12.70;82.70
27803;DHT22;15182;48.174;11.562;2024-03-23T14:57:38;12.70;82.60
27803;DHT22;15182;48.174;11.562;2024-03-23T15:00:07;12.70;82.30
27803;DHT22;15182;48.174;11.562;2024-03-23T15:02:37;12.60;82.20
27803;DHT22;15182;48.174;11.562;2024-03-23T15:05:05;12.60;82.10
27803;DHT22;15182;48.174;11.562;2024-03-23T15:07:36;12.60;81.90
27803;DHT22;15182;48.174;11.562;2024-03-23T15:10:04;12.60;81.90
27803;DHT22;15182;48.174;11.562;2024-03-23T15:12:34;12.60;81.80
27803;DHT22;15182;48.174;11.562;2024-03-23T15:15:01;12.60;82.00
27803;DHT22;15182;48.174;11.562;2024-03-23T15:17:28;12.50;82.20
27803;DHT22;15182;48.174;11.562;2024-03-23T15:19:55;12.50;82.50
27803;DHT22;15182;48.174;11.562;2024-03-23T15:22:24;12.40;82.50
27803;DHT22;15182;48.174;11.562;2024-03-23T15:24:51;12.40;82.60
27803;DHT22;15182;48.174;11.562;2024-03-23T15:27:19;12.30;82.90
27803;DHT22;15182;48.174;11.562;2024-03-23T15:29:46;12.20;83.30
27803;DHT22;15182;48.174;11.562;2024-03-23T15:32:13;12.20;83.40
27803;DHT22;15182;48.174;11.562;2024-03-23T15:34:41;12.10;83.80
27803;DHT22;15182;48.174;11.562;2024-03-23T15:37:08;12.10;85.20
27803;DHT22;15182;48.174;11.562;2024-03-23T15:39:36;12.10;84.70
27803;DHT22;15182;48.174;11.562;2024-03-23T15:42:04;12.10;85.00
27803;DHT22;15182;48.174;11.562;2024-03-23T15:44:32;12.10;85.30
27803;DHT22;15182;48.174;11.562;2024-03-23T15:47:00;12.10;85.30
27803;DHT22;15182;48.174;11.562;2024-03-23T15:49:27;12.20;85.40
27803;DHT22;15182;48.174;11.562;2024-03-23T15:51:55;12.20;85.30
27803;DHT22;15182;48.174;11.562;2024-03-23T15:54:23;12.20;85.50
27803;DHT22;15182;48.174;11.562;2024-03-23T15:56:52;12.20;85.60
27803;DHT22;15182;48.174;11.562;2024-03-23T15:59:19;12.30;86.00
27803;DHT22;15182;48.174;11.562;2024-03-23T16:01:48;12.30;85.90
27803;DHT22;15182;48.174;11.562;2024-03-23T16:04:15;12.30;86.20
27803;DHT22;15182;48.174;11.562;2024-03-23T16:06:42;12.30;86.30
27803;DHT22;15182;48.174;11.562;2024-03-23T16:09:10;12.40;86.40
27803;DHT22;15182;48.174;11.562;2024-03-23T16:11:38;12.40;86.40
27803;DHT22;15182;48.174;11.562;2024-03-23T16:14:06;12.40;86.50
27803;DHT22;15182;48.174;11.562;2024-03-23T16:16:34;12.40;86.50
27803;DHT22;15182;48.174;11.562;2024-03-23T16:19:01;12.40;86.10
27803;DHT22;15182;48.174;11.562;2024-03-23T16:21:28;12.40;86.00
27803;DHT22;15182;48.174;11.562;2024-03-23T16:23:57;12.40;85.90
27803;DHT22;15182;48.174;11.562;2024-03-23T16:26:24;12.40;86.00